Time;durP1;ratioP1;P1;durP2;ratioP2;P2;SDS_P1;SDS_P2;PMS_P1;PMS_P2;Temp;Humidity;BMP_temperature;BMP_pressure;BME280_temperature;BME280_humidity;BME280_pressure;Samples;Min_cycle;Max_cycle;Signal;HPM_P1;HPM_P2
2021/09/13 00:01:29;;;;;;;19.25;10.52;;;15.00;99.90;;;;;;4971820;28;20026;-64
2021/09/13 00:03:57;;;;;;;18.77;10.65;;;14.90;99.90;;;;;;4969166;28;20747;-64
2021/09/13 00:06:22;;;;;;;21.80;11.00;;;14.90;99.90;;;;;;4972402;28;20037;-64
2021/09/13 00:08:48;;;;;;;24.98;11.73;;;14.80;99.90;;;;;;4970900;28;20692;-64
2021/09/13 00:11:13;;;;;;;19.08;10.57;;;14.70;99.90;;;;;;4971624;28;20084;-64
2021/09/13 00:13:40;;;;;;;17.40;10.68;;;14.70;99.90;;;;;;4969796;28;20057;-64
2021/09/13 00:16:05;;;;;;;18.67;11.48;;;14.70;99.90;;;;;;4972443;28;20026;-64
2021/09/13 00:18:31;;;;;;;20.27;12.07;;;14.60;99.90;;;;;;4970487;28;20097;-64
2021/09/13 00:20:57;;;;;;;23.88;11.88;;;14.60;99.90;;;;;;4971734;28;20049;-64
2021/09/13 00:23:22;;;;;;;22.08;11.68;;;14.60;99.90;;;;;;4969924;28;20049;-64
2021/09/13 00:25:49;;;;;;;21.55;10.82;;;14.60;99.90;;;;;;4972316;28;20110;-64
2021/09/13 00:28:16;;;;;;;24.25;12.15;;;14.50;99.90;;;;;;4970235;28;20166;-64
2021/09/13 00:30:42;;;;;;;22.85;13.23;;;14.50;99.90;;;;;;4969512;28;20043;-64
2021/09/13 00:33:09;;;;;;;26.55;13.18;;;14.50;99.90;;;;;;4970188;28;20022;-64
2021/09/13 00:35:35;;;;;;;28.15;12.70;;;14.50;99.90;;;;;;4953135;28;20022;-64
2021/09/13 00:38:01;;;;;;;19.92;12.30;;;14.50;99.90;;;;;;4970265;28;20053;-64
2021/09/13 00:40:26;;;;;;;25.90;14.13;;;14.50;99.90;;;;;;4969650;28;20062;-64
2021/09/13 00:42:55;;;;;;;22.17;12.95;;;14.50;99.90;;;;;;4972473;28;20030;-64
2021/09/13 00:45:21;;;;;;;23.50;13.15;;;14.50;99.90;;;;;;4971332;28;20030;-64
2021/09/13 00:47:46;;;;;;;22.73;13.25;;;14.40;99.90;;;;;;4974435;28;20836;-64
2021/09/13 00:50:12;;;;;;;21.75;12.40;;;14.40;99.90;;;;;;4973779;28;20034;-64
2021/09/13 00:52:37;;;;;;;28.15;12.73;;;14.40;99.90;;;;;;4975043;28;20031;-64
2021/09/13 00:55:03;;;;;;;19.33;11.27;;;14.30;99.90;;;;;;4971243;28;20058;-64
2021/09/13 00:57:28;;;;;;;17.08;10.30;;;14.30;99.90;;;;;;4972519;28;20800;-64
2021/09/13 00:59:55;;;;;;;21.95;11.77;;;14.20;99.90;;;;;;4957033;28;20078;-64
2021/09/13 01:02:20;;;;;;;30.48;13.77;;;14.10;99.90;;;;;;4970113;28;20046;-64
2021/09/13 01:04:46;;;;;;;22.70;12.50;;;14.10;99.90;;;;;;4973465;28;20030;-64
2021/09/13 01:07:11;;;;;;;20.75;11.95;;;14.30;99.90;;;;;;4969938;28;20034;-64
2021/09/13 01:09:37;;;;;;;23.92;12.27;;;14.00;99.90;;;;;;4975592;28;20389;-64
2021/09/13 01:12:02;;;;;;;22.88;13.20;;;14.00;99.90;;;;;;4972658;28;20406;-64
2021/09/13 01:14:28;;;;;;;28.55;13.23;;;14.00;99.90;;;;;;4970559;28;20399;-64
2021/09/13 01:16:53;;;;;;;25.50;13.55;;;14.00;99.90;;;;;;4974993;28;20206;-64
2021/09/13 01:19:19;;;;;;;24.08;13.27;;;14.00;99.90;;;;;;4973537;28;20035;-64
2021/09/13 01:21:45;;;;;;;24.00;13.25;;;14.00;99.90;;;;;;4971318;28;20065;-64
2021/09/13 01:24:10;;;;;;;25.92;14.23;;;14.20;99.90;;;;;;4973391;28;20034;-64
2021/09/13 01:26:37;;;;;;;27.45;14.88;;;14.20;99.90;;;;;;4956712;28;20548;-64
2021/09/13 01:29:04;;;;;;;30.15;15.15;;;13.90;99.90;;;;;;4970111;28;20881;-64
2021/09/13 01:31:34;;;;;;;28.95;15.20;;;13.90;99.90;;;;;;4972627;28;20085;-64
2021/09/13 01:33:59;;;;;;;26.40;14.73;;;13.90;99.90;;;;;;4972864;28;20039;-64
2021/09/13 01:36:28;;;;;;;26.05;14.65;;;13.90;99.90;;;;;;4972831;28;20867;-64
2021/09/13 01:38:57;;;;;;;23.60;14.02;;;13.90;99.90;;;;;;4970481;28;20061;-64
2021/09/13 01:41:23;;;;;;;25.75;14.65;;;13.90;99.90;;;;;;4950036;28;20062;-64
2021/09/13 01:43:53;;;;;;;26.73;14.77;;;14.20;99.90;;;;;;4973657;28;20034;-64
2021/09/13 01:46:19;;;;;;;25.48;13.82;;;13.80;99.90;;;;;;4971852;28;20697;-64
2021/09/13 01:48:49;;;;;;;27.17;13.95;;;13.80;99.90;;;;;;4968472;28;20146;-64
2021/09/13 01:51:14;;;;;;;27.25;14.52;;;13.80;99.90;;;;;;4976280;28;20458;-64
2021/09/13 01:53:41;;;;;;;33.03;15.98;;;13.70;99.90;;;;;;4957371;28;20795;-64
2021/09/13 01:56:07;;;;;;;31.60;15.90;;;13.70;99.90;;;;;;4970741;28;20521;-64
2021/09/13 01:58:36;;;;;;;30.95;15.00;;;13.70;99.90;;;;;;4968298;28;20570;-64
2021/09/13 02:01:02;;;;;;;29.40;15.48;;;13.80;99.90;;;;;;4956959;28;20038;-64
2021/09/13 02:03:32;;;;;;;27.58;15.23;;;13.90;99.90;;;;;;4972607;28;20042;-64
2021/09/13 02:06:00;;;;;;;22.90;13.65;;;13.70;99.90;;;;;;4968182;28;20030;-64
2021/09/13 02:08:27;;;;;;;28.80;14.40;;;13.80;99.90;;;;;;4971216;28;20035;-64
2021/09/13 02:10:52;;;;;;;28.45;15.43;;;13.60;99.90;;;;;;4973265;28;20410;-64
2021/09/13 02:13:18;;;;;;;25.85;16.15;;;13.70;99.90;;;;;;4953525;28;20035;-64
2021/09/13 02:15:43;;;;;;;29.88;16.42;;;13.50;99.90;;;;;;4973645;28;20200;-64
2021/09/13 02:18:14;;;;;;;31.70;16.92;;;13.80;99.90;;;;;;4955691;28;20026;-64
2021/09/13 02:20:47;;;;;;;32.50;17.60;;;14.10;99.90;;;;;;4955789;28;20042;-64
2021/09/13 02:23:13;;;;;;;35.10;15.48;;;13.40;99.90;;;;;;4972705;28;20826;-64
2021/09/13 02:25:39;;;;;;;29.88;16.30;;;13.50;99.90;;;;;;4972481;28;20137;-64
2021/09/13 02:28:05;;;;;;;26.25;14.88;;;13.80;99.90;;;;;;4969726;28;20081;-64
2021/09/13 02:30:31;;;;;;;28.27;16.05;;;13.50;99.90;;;;;;4973164;28;20038;-64
2021/09/13 02:32:56;;;;;;;25.05;14.90;;;13.60;99.90;;;;;;4971759;28;20061;-64
2021/09/13 02:35:25;;;;;;;27.65;15.90;;;12.90;99.90;;;;;;4955335;28;20031;-64
2021/09/13 02:37:50;;;;;;;28.05;16.15;;;13.30;99.90;;;;;;4971371;28;20458;-64
2021/09/13 02:40:17;;;;;;;30.35;16.90;;;13.30;99.90;;;;;;4953185;28;20030;-64
2021/09/13 02:42:43;;;;;;;25.95;15.85;;;13.30;99.90;;;;;;4970539;28;20027;-64
2021/09/13 02:45:09;;;;;;;32.90;16.98;;;13.30;99.90;;;;;;4969552;28;20034;-64
2021/09/13 02:47:34;;;;;;;32.72;17.10;;;13.20;99.90;;;;;;4971593;28;20104;-64
2021/09/13 02:50:00;;;;;;;32.22;17.67;;;13.50;99.90;;;;;;4969575;28;20084;-64
2021/09/13 02:52:26;;;;;;;29.40;16.95;;;13.20;99.90;;;;;;4970328;28;20455;-64
2021/09/13 02:54:51;;;;;;;31.45;16.10;;;13.20;99.90;;;;;;4973213;28;20033;-64
2021/09/13 02:57:17;;;;;;;32.83;17.75;;;12.30;99.90;;;;;;4970734;28;20030;-64
2021/09/13 02:59:47;;;;;;;35.67;19.05;;;13.20;99.90;;;;;;4969266;28;20568;-64
2021/09/13 03:02:12;;;;;;;35.25;18.65;;;13.20;99.90;;;;;;4971688;28;20061;-64
2021/09/13 03:04:38;;;;;;;31.67;16.88;;;13.20;99.90;;;;;;4972569;28;20570;-64
2021/09/13 03:07:04;;;;;;;36.13;17.20;;;13.20;99.90;;;;;;4972323;28;20042;-64
2021/09/13 03:09:29;;;;;;;30.10;16.88;;;13.20;99.90;;;;;;4969394;28;20045;-64
2021/09/13 03:11:55;;;;;;;34.90;17.85;;;13.10;99.90;;;;;;4970691;28;20042;-64
2021/09/13 03:14:21;;;;;;;32.78;17.33;;;13.30;99.90;;;;;;4972178;28;20050;-64
2021/09/13 03:16:47;;;;;;;34.83;17.98;;;13.10;99.90;;;;;;4969696;28;20031;-64
2021/09/13 03:19:13;;;;;;;28.70;16.33;;;13.10;99.90;;;;;;4971923;28;20045;-64
2021/09/13 03:21:38;;;;;;;32.20;16.75;;;13.10;99.90;;;;;;4971735;28;20039;-64
2021/09/13 03:24:08;;;;;;;33.22;17.33;;;13.10;99.90;;;;;;4969968;28;20038;-64
2021/09/13 03:26:33;;;;;;;34.17;17.35;;;13.00;99.90;;;;;;4972094;28;20419;-64
2021/09/13 03:28:59;;;;;;;36.08;17.85;;;13.10;99.90;;;;;;4971387;28;20026;-64
2021/09/13 03:31:24;;;;;;;33.47;18.50;;;13.10;99.90;;;;;;4970861;28;20027;-64
2021/09/13 03:33:50;;;;;;;39.53;19.48;;;13.10;99.90;;;;;;4971432;28;20672;-64
2021/09/13 03:36:15;;;;;;;35.88;18.63;;;13.10;99.90;;;;;;4967026;28;20034;-64
2021/09/13 03:38:41;;;;;;;37.00;18.77;;;13.70;99.90;;;;;;4965933;28;20551;-64
2021/09/13 03:41:13;;;;;;;37.95;18.75;;;13.10;99.90;;;;;;4969100;28;20410;-64
2021/09/13 03:43:38;;;;;;;35.88;19.30;;;13.00;99.90;;;;;;4968662;28;20038;-64
2021/09/13 03:46:04;;;;;;;31.17;18.27;;;13.10;99.90;;;;;;4965778;28;20070;-64
2021/09/13 03:48:42;;;;;;;37.28;18.92;;;13.10;99.90;;;;;;4970277;28;20034;-64
2021/09/13 03:51:08;;;;;;;33.97;20.27;;;13.30;99.90;;;;;;4971728;28;20770;-64
2021/09/13 03:53:33;;;;;;;36.63;19.60;;;13.10;99.90;;;;;;4969175;28;20042;-64
2021/09/13 03:56:02;;;;;;;37.72;20.10;;;13.10;99.90;;;;;;4969305;28;20066;-64
2021/09/13 03:58:30;;;;;;;32.28;18.17;;;13.20;99.90;;;;;;4968221;28;20041;-64
2021/09/13 04:00:55;;;;;;;42.00;20.38;;;13.20;99.90;;;;;;4966119;28;20031;-64
2021/09/13 04:03:28;;;;;;;32.78;17.75;;;13.30;99.90;;;;;;4971039;28;20038;-64
2021/09/13 04:05:57;;;;;;;30.05;17.48;;;13.30;99.90;;;;;;4968240;28;20116;-64
2021/09/13 04:14:40;;;;;;;34.17;17.05;;;13.30;99.90;;;;;;4970386;28;20117;-64
2021/09/13 04:17:41;;;;;;;30.60;16.45;;;13.30;99.90;;;;;;4970276;28;20030;-64
2021/09/13 04:20:33;;;;;;;26.48;15.32;;;13.20;99.90;;;;;;4949466;28;20072;-64
2021/09/13 04:23:16;;;;;;;24.33;14.65;;;13.10;99.90;;;;;;4967334;28;20050;-64
2021/09/13 04:26:04;;;;;;;22.77;14.18;;;13.10;99.90;;;;;;4951035;28;20026;-64
2021/09/13 04:29:05;;;;;;;28.65;15.75;;;13.00;99.90;;;;;;4956126;28;20129;-64
2021/09/13 04:32:03;;;;;;;24.00;15.32;;;12.90;99.90;;;;;;4967866;28;20630;-64
2021/09/13 04:35:04;;;;;;;26.25;15.70;;;12.90;99.90;;;;;;4929354;29;20114;-64
2021/09/13 04:38:02;;;;;;;30.20;16.65;;;12.90;99.90;;;;;;4959753;28;20100;-64
2021/09/13 04:40:46;;;;;;;28.08;16.08;;;12.90;99.90;;;;;;4973488;28;20536;-64
2021/09/13 04:43:31;;;;;;;30.08;15.70;;;12.90;99.90;;;;;;4966052;28;20133;-64
2021/09/13 04:46:09;;;;;;;29.85;16.70;;;13.00;99.90;;;;;;4972495;28;20050;-64
2021/09/13 04:48:52;;;;;;;28.77;16.50;;;12.90;99.90;;;;;;4965254;28;20034;-64
2021/09/13 04:51:46;;;;;;;37.22;18.77;;;12.90;99.90;;;;;;4958900;28;20085;-64
2021/09/13 04:54:16;;;;;;;34.65;18.00;;;12.90;99.90;;;;;;4965763;28;20490;-64
2021/09/13 04:56:43;;;;;;;37.10;18.75;;;13.00;99.90;;;;;;4970828;28;20038;-64
2021/09/13 04:59:08;;;;;;;30.98;17.60;;;13.00;99.90;;;;;;4967628;28;20550;-64
2021/09/13 05:01:34;;;;;;;33.45;17.90;;;13.10;99.90;;;;;;4968198;28;20097;-64
2021/09/13 05:03:59;;;;;;;33.95;17.90;;;13.10;99.90;;;;;;4967529;28;20398;-64
2021/09/13 05:06:26;;;;;;;31.73;17.13;;;13.10;99.90;;;;;;4963528;28;20042;-64
2021/09/13 05:08:53;;;;;;;33.88;17.70;;;13.10;99.90;;;;;;4969570;28;20035;-65
2021/09/13 05:11:22;;;;;;;33.28;18.15;;;13.20;99.90;;;;;;4969953;28;20604;-64
2021/09/13 05:13:47;;;;;;;30.92;17.35;;;13.10;99.90;;;;;;4951491;28;20038;-64
2021/09/13 05:16:13;;;;;;;32.15;16.88;;;13.20;99.90;;;;;;4973751;28;20022;-64
2021/09/13 05:18:41;;;;;;;28.98;17.27;;;13.20;99.90;;;;;;4963360;28;20109;-64
2021/09/13 05:21:06;;;;;;;37.15;18.17;;;13.10;99.90;;;;;;4968554;28;20141;-66
2021/09/13 05:23:33;;;;;;;33.60;17.70;;;13.20;99.90;;;;;;4968665;28;20034;-65
2021/09/13 05:25:59;;;;;;;32.00;17.95;;;13.20;99.90;;;;;;4949868;28;20039;-65
2021/09/13 05:28:24;;;;;;;26.77;16.23;;;13.20;99.90;;;;;;4965595;28;20034;-64
2021/09/13 05:30:50;;;;;;;27.25;16.80;;;13.20;99.90;;;;;;4966301;28;20026;-64
2021/09/13 05:33:17;;;;;;;30.77;16.67;;;13.30;99.90;;;;;;4970447;28;20037;-65
2021/09/13 05:35:43;;;;;;;25.08;15.63;;;13.10;99.90;;;;;;4971165;28;20030;-64
2021/09/13 05:38:12;;;;;;;28.92;16.50;;;13.40;99.90;;;;;;4972750;28;20822;-64
2021/09/13 05:40:40;;;;;;;27.30;15.35;;;13.20;99.90;;;;;;4970660;28;20035;-64
2021/09/13 05:43:07;;;;;;;30.77;15.80;;;13.20;99.90;;;;;;4967159;28;20410;-64
2021/09/13 05:45:33;;;;;;;28.10;16.15;;;13.20;99.90;;;;;;4971208;28;20105;-64
2021/09/13 05:47:58;;;;;;;27.52;16.80;;;13.20;99.90;;;;;;4971110;28;20823;-64
2021/09/13 05:50:24;;;;;;;28.55;16.55;;;13.30;99.90;;;;;;4973051;28;20038;-64
2021/09/13 05:52:50;;;;;;;30.83;17.45;;;13.30;99.90;;;;;;4970435;28;20133;-64
2021/09/13 05:55:16;;;;;;;33.00;17.20;;;13.30;99.90;;;;;;4972032;28;20587;-64
2021/09/13 05:57:46;;;;;;;29.65;16.98;;;13.40;99.90;;;;;;4963989;28;20058;-65
2021/09/13 06:00:11;;;;;;;34.33;18.50;;;13.40;99.90;;;;;;4968957;28;20077;-64
2021/09/13 06:02:38;;;;;;;32.10;19.52;;;13.50;99.90;;;;;;4971648;28;20053;-64
2021/09/13 06:05:22;;;;;;;36.47;19.60;;;13.60;99.90;;;;;;4975846;28;20537;-64
2021/09/13 06:07:50;;;;;;;33.65;19.50;;;13.70;99.90;;;;;;4956084;28;20046;-64
2021/09/13 06:10:19;;;;;;;37.33;19.52;;;13.70;99.90;;;;;;4971102;28;20041;-64
2021/09/13 06:12:45;;;;;;;32.42;18.88;;;13.80;99.90;;;;;;4967920;28;20026;-64
2021/09/13 06:15:11;;;;;;;29.90;18.30;;;13.90;99.90;;;;;;4970960;28;20751;-64
2021/09/13 06:17:41;;;;;;;31.98;18.27;;;14.00;99.90;;;;;;4969919;28;20041;-64
2021/09/13 06:20:09;;;;;;;29.45;18.45;;;14.00;99.90;;;;;;4971159;28;20126;-64
2021/09/13 06:22:34;;;;;;;31.02;16.42;;;14.10;99.90;;;;;;4970027;28;20878;-64
2021/09/13 06:25:07;;;;;;;30.02;18.50;;;14.60;99.90;;;;;;4969324;28;20032;-64
2021/09/13 06:27:34;;;;;;;28.38;17.85;;;14.30;99.90;;;;;;4964853;28;20035;-64
2021/09/13 06:30:00;;;;;;;29.38;17.60;;;14.40;99.90;;;;;;4971487;28;20034;-64
2021/09/13 06:32:25;;;;;;;25.00;15.75;;;14.50;99.90;;;;;;4968011;28;20031;-64
2021/09/13 06:34:51;;;;;;;29.88;19.10;;;14.70;99.90;;;;;;4965945;28;20070;-64
2021/09/13 06:37:23;;;;;;;27.50;16.45;;;14.70;99.90;;;;;;4967770;28;20503;-64
2021/09/13 06:39:51;;;;;;;25.30;15.35;;;14.90;99.90;;;;;;4971813;28;20487;-64
2021/09/13 06:42:16;;;;;;;22.38;14.68;;;15.00;99.90;;;;;;4971781;28;20026;-64
2021/09/13 06:44:46;;;;;;;23.13;13.90;;;15.00;99.90;;;;;;4970457;28;20886;-64
2021/09/13 06:47:22;;;;;;;21.98;13.85;;;15.50;99.90;;;;;;4954205;28;20039;-64
2021/09/13 06:49:48;;;;;;;22.08;13.98;;;15.20;99.90;;;;;;4969641;28;20407;-64
2021/09/13 06:52:13;;;;;;;26.45;14.57;;;15.50;99.90;;;;;;4971576;28;20035;-64
2021/09/13 06:54:39;;;;;;;20.08;13.25;;;15.40;99.90;;;;;;4970048;28;20753;-64
2021/09/13 06:57:04;;;;;;;19.23;12.93;;;15.50;99.90;;;;;;4969003;28;20957;-64
2021/09/13 06:59:30;;;;;;;20.58;12.35;;;15.50;99.90;;;;;;4972621;28;20166;-63
2021/09/13 07:01:55;;;;;;;18.67;13.10;;;15.60;99.90;;;;;;4962846;28;20133;-64
2021/09/13 07:04:23;;;;;;;21.73;12.43;;;15.80;99.90;;;;;;4968638;28;20066;-64
2021/09/13 07:06:51;;;;;;;23.48;12.82;;;15.90;99.90;;;;;;4974932;28;20062;-64
2021/09/13 07:09:17;;;;;;;20.10;10.63;;;15.90;99.90;;;;;;4967949;28;20039;-64
2021/09/13 07:11:42;;;;;;;19.05;11.15;;;16.00;99.90;;;;;;4967889;28;20031;-64
2021/09/13 07:14:08;;;;;;;23.65;12.57;;;16.10;99.90;;;;;;4972269;28;20070;-64
2021/09/13 07:16:34;;;;;;;16.75;10.10;;;16.20;99.90;;;;;;4971880;28;20034;-64
2021/09/13 07:19:01;;;;;;;12.52;8.25;;;16.20;99.90;;;;;;4966814;28;20117;-63
2021/09/13 07:21:28;;;;;;;18.27;8.07;;;16.30;99.90;;;;;;4970258;28;20881;-63
2021/09/13 07:23:53;;;;;;;17.25;8.95;;;16.50;99.90;;;;;;4969853;28;20039;-63
2021/09/13 07:26:19;;;;;;;16.30;8.55;;;16.40;99.90;;;;;;4972443;28;20510;-63
2021/09/13 07:28:44;;;;;;;18.88;8.85;;;16.50;99.90;;;;;;4968624;28;20045;-63
2021/09/13 07:31:09;;;;;;;14.63;8.93;;;16.80;99.90;;;;;;4972129;28;20050;-63
2021/09/13 07:33:35;;;;;;;13.35;8.18;;;16.80;99.90;;;;;;4969579;28;20057;-63
2021/09/13 07:36:00;;;;;;;15.32;7.45;;;17.00;99.90;;;;;;4971718;28;20034;-63
2021/09/13 07:38:26;;;;;;;14.45;8.23;;;17.00;99.90;;;;;;4968888;28;20077;-63
2021/09/13 07:40:51;;;;;;;10.32;6.88;;;17.30;99.90;;;;;;4975533;28;20656;-63
2021/09/13 07:43:17;;;;;;;17.23;7.35;;;17.40;99.90;;;;;;4967895;28;20656;-63
2021/09/13 07:45:42;;;;;;;13.48;6.25;;;17.50;99.90;;;;;;4969381;28;20113;-63
2021/09/13 07:48:08;;;;;;;12.65;6.88;;;17.70;99.90;;;;;;4967555;28;20039;-63
2021/09/13 07:50:34;;;;;;;13.25;6.05;;;17.80;99.90;;;;;;4971940;28;20628;-64
2021/09/13 07:52:59;;;;;;;17.58;8.52;;;18.00;99.90;;;;;;4962524;28;20125;-63
2021/09/13 07:55:25;;;;;;;14.40;7.50;;;18.10;99.90;;;;;;4968361;28;20035;-64
2021/09/13 07:57:50;;;;;;;6.57;4.90;;;18.30;99.90;;;;;;4968684;28;20717;-64
2021/09/13 08:00:16;;;;;;;11.10;6.10;;;18.50;99.90;;;;;;4971395;28;20100;-63
2021/09/13 08:02:43;;;;;;;9.23;4.80;;;18.70;99.90;;;;;;4963371;28;20121;-63
2021/09/13 08:05:08;;;;;;;9.90;4.60;;;18.70;99.90;;;;;;4965879;28;20043;-63
2021/09/13 08:07:34;;;;;;;8.70;3.58;;;18.90;99.90;;;;;;4968541;28;20144;-64
2021/09/13 08:09:59;;;;;;;12.15;4.38;;;19.10;99.90;;;;;;4963554;28;20038;-63
2021/09/13 08:12:25;;;;;;;8.55;3.95;;;19.20;99.90;;;;;;4970914;28;20038;-63
2021/09/13 08:14:51;;;;;;;9.35;3.30;;;19.30;99.90;;;;;;4971339;28;20696;-63
2021/09/13 08:17:16;;;;;;;7.65;3.72;;;19.20;99.90;;;;;;4970478;28;20030;-63
2021/09/13 08:19:44;;;;;;;12.25;5.00;;;19.40;99.90;;;;;;4969210;28;20030;-63
2021/09/13 08:22:12;;;;;;;9.75;4.43;;;19.40;99.90;;;;;;4968776;28;20042;-63
2021/09/13 08:24:39;;;;;;;6.38;3.25;;;19.60;99.90;;;;;;4974345;28;20035;-63
2021/09/13 08:27:12;;;;;;;5.20;3.55;;;19.60;99.90;;;;;;4970781;28;20054;-63
2021/09/13 08:29:38;;;;;;;7.13;4.13;;;19.50;99.90;;;;;;4970550;28;20125;-63
2021/09/13 08:32:03;;;;;;;6.07;3.15;;;19.60;99.90;;;;;;4968288;28;20115;-64
2021/09/13 08:34:29;;;;;;;7.05;4.20;;;19.70;99.90;;;;;;4963247;28;20046;-64
2021/09/13 08:36:56;;;;;;;6.43;3.63;;;19.80;99.90;;;;;;4968278;28;20049;-64
2021/09/13 08:39:21;;;;;;;7.00;3.65;;;20.00;99.90;;;;;;4970250;28;20027;-64
2021/09/13 08:41:48;;;;;;;7.38;3.95;;;20.20;99.90;;;;;;4967105;28;20039;-63
2021/09/13 08:44:13;;;;;;;8.80;5.43;;;20.30;99.90;;;;;;4974761;28;20065;-64
2021/09/13 08:46:51;;;;;;;7.78;4.22;;;20.30;99.90;;;;;;4969808;28;20074;-64
2021/09/13 08:49:32;;;;;;;6.03;3.45;;;20.30;99.90;;;;;;4971566;28;20094;-63
2021/09/13 08:51:58;;;;;;;4.63;3.10;;;20.20;99.90;;;;;;4970837;28;20041;-63
2021/09/13 08:54:26;;;;;;;6.68;3.00;;;20.20;99.90;;;;;;4967237;28;20027;-63
2021/09/13 08:56:53;;;;;;;8.63;3.45;;;20.30;99.90;;;;;;4966543;28;20031;-63
2021/09/13 08:59:23;;;;;;;4.18;2.85;;;20.40;99.90;;;;;;4971690;28;20429;-64
2021/09/13 09:01:48;;;;;;;5.50;2.60;;;20.70;99.90;;;;;;4970329;28;20031;-63
2021/09/13 09:04:14;;;;;;;6.80;3.17;;;20.70;99.90;;;;;;4969705;28;20026;-64
2021/09/13 09:06:41;;;;;;;5.72;2.90;;;20.50;99.90;;;;;;4971798;28;20030;-64
2021/09/13 09:09:06;;;;;;;7.00;2.90;;;20.50;99.90;;;;;;4970436;28;20065;-64
2021/09/13 09:11:32;;;;;;;5.20;2.58;;;20.60;99.90;;;;;;4971760;28;20042;-64
2021/09/13 09:13:57;;;;;;;4.63;2.17;;;20.80;99.90;;;;;;4971977;28;20077;-64
2021/09/13 09:16:23;;;;;;;6.82;2.30;;;20.80;99.90;;;;;;4965763;28;20037;-64
2021/09/13 09:18:48;;;;;;;5.75;2.20;;;20.80;99.90;;;;;;4973403;28;20072;-64
2021/09/13 09:21:14;;;;;;;3.67;2.65;;;20.90;99.90;;;;;;4968472;28;20096;-65
2021/09/13 09:23:39;;;;;;;11.82;3.10;;;20.80;99.90;;;;;;4973748;28;20487;-64
2021/09/13 09:26:05;;;;;;;3.20;2.10;;;20.80;99.90;;;;;;4972562;28;20072;-64
2021/09/13 09:28:30;;;;;;;6.13;2.10;;;21.00;99.90;;;;;;4970829;28;20034;-64
2021/09/13 09:30:55;;;;;;;8.48;3.08;;;21.20;99.90;;;;;;4970606;28;20038;-64
2021/09/13 09:33:21;;;;;;;4.05;2.10;;;21.40;99.90;;;;;;4969081;28;20042;-64
2021/09/13 09:35:47;;;;;;;6.55;2.58;;;21.20;99.90;;;;;;4969905;28;20035;-64
2021/09/13 09:38:12;;;;;;;5.13;2.30;;;21.30;99.90;;;;;;4970216;28;20816;-64
2021/09/13 09:40:37;;;;;;;5.10;2.10;;;21.40;99.90;;;;;;4969280;28;20705;-64
2021/09/13 09:43:03;;;;;;;6.40;2.20;;;21.90;99.90;;;;;;4970094;28;20030;-64
2021/09/13 09:45:29;;;;;;;4.80;1.95;;;22.10;99.90;;;;;;4970210;28;20053;-64
2021/09/13 09:47:54;;;;;;;3.88;1.88;;;22.10;99.90;;;;;;4968705;28;20851;-64
2021/09/13 09:50:20;;;;;;;5.57;2.53;;;21.90;99.90;;;;;;4969238;28;20045;-64
2021/09/13 09:52:45;;;;;;;5.38;1.75;;;21.60;99.90;;;;;;4968536;28;20046;-64
2021/09/13 09:55:11;;;;;;;3.78;1.50;;;21.80;99.90;;;;;;4969967;28;20486;-64
2021/09/13 09:57:36;;;;;;;4.35;1.70;;;21.90;99.90;;;;;;4969052;28;20075;-64
2021/09/13 10:00:02;;;;;;;9.43;2.10;;;22.10;99.90;;;;;;4974570;28;20038;-64
2021/09/13 10:02:29;;;;;;;4.10;2.05;;;22.10;99.90;;;;;;4969818;28;20134;-64
2021/09/13 10:04:55;;;;;;;6.75;1.88;;;22.00;99.90;;;;;;4973243;28;20042;-64
2021/09/13 10:07:21;;;;;;;10.10;3.15;;;21.80;99.90;;;;;;4971213;28;20057;-64
2021/09/13 10:09:46;;;;;;;5.05;1.70;;;21.50;99.90;;;;;;4969032;28;20117;-64
2021/09/13 10:12:12;;;;;;;8.52;2.72;;;21.40;99.90;;;;;;4971424;28;20038;-64
2021/09/13 10:14:37;;;;;;;8.77;4.90;;;21.20;99.90;;;;;;4971129;28;20436;-64
2021/09/13 10:17:05;;;;;;;6.28;3.30;;;21.20;99.90;;;;;;4971178;28;20038;-64
2021/09/13 10:19:30;;;;;;;8.93;3.38;;;21.40;99.90;;;;;;4969720;28;20038;-64
2021/09/13 10:21:56;;;;;;;3.83;1.77;;;21.70;99.90;;;;;;4970262;28;20042;-63
2021/09/13 10:24:22;;;;;;;2.72;1.40;;;22.00;99.90;;;;;;4967172;28;20039;-63
2021/09/13 10:26:47;;;;;;;3.58;1.65;;;22.40;99.90;;;;;;4970214;28;20072;-64
2021/09/13 10:29:13;;;;;;;6.72;1.80;;;22.40;99.90;;;;;;4967226;28;20065;-64
2021/09/13 10:31:38;;;;;;;5.05;1.95;;;22.40;99.90;;;;;;4971327;28;20132;-64
2021/09/13 10:34:04;;;;;;;4.10;2.28;;;22.30;99.90;;;;;;4972361;28;20066;-64
2021/09/13 10:36:29;;;;;;;2.92;1.48;;;22.10;99.90;;;;;;4970819;28;20529;-64
2021/09/13 10:38:55;;;;;;;9.30;2.28;;;22.10;99.90;;;;;;4969276;28;20137;-64
2021/09/13 10:41:21;;;;;;;2.30;1.30;;;21.90;99.90;;;;;;4970731;28;20031;-64
2021/09/13 10:43:47;;;;;;;4.10;2.15;;;21.70;99.90;;;;;;4970792;28;20502;-64
2021/09/13 10:46:12;;;;;;;4.90;2.72;;;21.90;99.90;;;;;;4971718;28;20506;-64
2021/09/13 10:48:38;;;;;;;7.43;2.22;;;21.80;99.90;;;;;;4969354;28;20444;-64
2021/09/13 10:51:03;;;;;;;6.53;1.60;;;21.70;99.90;;;;;;4962757;28;20030;-64
2021/09/13 10:53:29;;;;;;;4.18;1.42;;;21.70;99.90;;;;;;4970761;28;20846;-64
2021/09/13 10:55:59;;;;;;;5.53;1.67;;;21.80;99.90;;;;;;4970149;28;20042;-63
2021/09/13 10:58:24;;;;;;;5.40;1.92;;;21.60;99.90;;;;;;4972282;28;20038;-63
2021/09/13 11:00:51;;;;;;;3.75;1.58;;;21.40;99.90;;;;;;4970552;28;20152;-64
2021/09/13 11:03:16;;;;;;;10.40;2.00;;;21.40;99.90;;;;;;4969758;28;20080;-64
2021/09/13 11:05:41;;;;;;;5.10;1.65;;;21.30;99.90;;;;;;4967419;28;20035;-63
2021/09/13 11:08:08;;;;;;;3.72;1.90;;;21.20;99.90;;;;;;4972457;28;20777;-63
2021/09/13 11:10:33;;;;;;;8.88;1.88;;;21.10;99.90;;;;;;4970295;28;20035;-64
2021/09/13 11:12:59;;;;;;;3.47;1.75;;;20.90;99.90;;;;;;4967581;28;21741;-63
2021/09/13 11:15:24;;;;;;;7.78;2.22;;;20.90;99.90;;;;;;4967386;28;20034;-64
2021/09/13 11:17:50;;;;;;;8.73;3.25;;;20.80;99.90;;;;;;4966986;28;20067;-64
2021/09/13 11:20:16;;;;;;;31.67;16.00;;;20.80;99.90;;;;;;4977788;28;20038;-64
2021/09/13 11:22:42;;;;;;;6.18;2.58;;;20.80;99.90;;;;;;4967491;28;20173;-64
2021/09/13 11:25:08;;;;;;;6.25;2.85;;;21.00;99.90;;;;;;4970903;28;20042;-64
2021/09/13 11:27:34;;;;;;;6.32;2.50;;;21.10;99.90;;;;;;4970935;28;20158;-64
2021/09/13 11:30:01;;;;;;;6.90;2.22;;;21.10;99.90;;;;;;4966197;28;20041;-64
2021/09/13 11:32:26;;;;;;;4.53;2.00;;;21.20;99.90;;;;;;4966302;28;20030;-64
2021/09/13 11:34:52;;;;;;;6.63;2.13;;;21.20;99.90;;;;;;4967435;28;20721;-64
2021/09/13 11:37:23;;;;;;;4.00;1.77;;;21.20;99.90;;;;;;4967594;28;20113;-64
2021/09/13 11:39:49;;;;;;;6.47;1.90;;;21.50;99.90;;;;;;4968100;28;20142;-64
2021/09/13 11:42:19;;;;;;;5.05;1.88;;;21.60;99.90;;;;;;4970057;28;20457;-64
2021/09/13 11:44:44;;;;;;;4.72;2.00;;;21.50;99.90;;;;;;4967029;28;20044;-64
2021/09/13 11:47:11;;;;;;;8.05;1.90;;;21.40;99.90;;;;;;4970244;28;20027;-64
2021/09/13 11:49:37;;;;;;;5.60;2.13;;;21.50;99.90;;;;;;4967361;28;20058;-63
2021/09/13 11:52:05;;;;;;;3.97;2.00;;;21.50;99.90;;;;;;4953440;28;20438;-64
2021/09/13 11:54:31;;;;;;;7.13;2.22;;;21.60;99.90;;;;;;4966832;28;20034;-64
2021/09/13 11:56:58;;;;;;;3.65;2.22;;;21.60;99.90;;;;;;4969781;28;20113;-64
2021/09/13 11:59:24;;;;;;;4.72;2.08;;;21.60;99.90;;;;;;4972636;28;20487;-64
2021/09/13 12:01:49;;;;;;;5.63;2.20;;;21.60;99.90;;;;;;4963408;28;20039;-64
2021/09/13 12:04:15;;;;;;;3.97;2.20;;;21.70;99.90;;;;;;4969425;28;20116;-64
2021/09/13 12:06:40;;;;;;;5.45;2.60;;;21.60;99.90;;;;;;4971974;28;20030;-64
2021/09/13 12:09:06;;;;;;;5.40;2.30;;;21.60;99.90;;;;;;4967320;28;20026;-64
2021/09/13 12:11:31;;;;;;;6.75;3.30;;;21.80;99.90;;;;;;4969270;28;20034;-64
2021/09/13 12:13:57;;;;;;;5.85;3.15;;;21.80;99.90;;;;;;4967712;28;20038;-64
2021/09/13 12:16:22;;;;;;;7.47;2.80;;;22.00;99.90;;;;;;4968279;28;20045;-63
2021/09/13 12:18:47;;;;;;;6.38;2.65;;;21.80;99.90;;;;;;4965189;28;20030;-63
2021/09/13 12:21:13;;;;;;;7.35;2.35;;;21.80;99.90;;;;;;4966776;28;20030;-64
2021/09/13 12:23:42;;;;;;;6.43;2.40;;;21.70;99.90;;;;;;4969012;28;20046;-64
2021/09/13 12:26:08;;;;;;;4.85;2.13;;;21.70;99.90;;;;;;4960576;28;20043;-64
2021/09/13 12:28:33;;;;;;;5.28;2.20;;;21.60;99.90;;;;;;4965932;28;20038;-64
2021/09/13 12:30:59;;;;;;;4.65;2.33;;;21.50;99.90;;;;;;4969703;28;20044;-63
2021/09/13 12:33:24;;;;;;;2.78;2.15;;;21.50;99.90;;;;;;4966160;28;20030;-64
2021/09/13 12:35:50;;;;;;;4.80;2.65;;;21.30;99.90;;;;;;4968522;28;20054;-64
2021/09/13 12:38:15;;;;;;;5.15;2.15;;;21.10;99.90;;;;;;4968673;28;20433;-64
2021/09/13 12:40:41;;;;;;;4.38;2.00;;;21.00;99.90;;;;;;4967768;28;20137;-64
2021/09/13 12:43:06;;;;;;;3.55;1.92;;;21.10;99.90;;;;;;4974060;28;20066;-64